Time;durP1;ratioP1;P1;durP2;ratioP2;P2;SDS_P1;SDS_P2;PMS_P1;PMS_P2;Temp;Humidity;BMP_temperature;BMP_pressure;BME280_temperature;BME280_humidity;BME280_pressure;Samples;Min_cycle;Max_cycle;Signal;HPM_P1;HPM_P2
2023/09/19 00:02:06;;;;;;;7.93;1.90;;;15.40;99.90;;;;;;5034011;28;20634;-43
2023/09/19 00:04:56;;;;;;;7.80;2.03;;;15.30;99.90;;;;;;5016943;28;20191;-45
2023/09/19 00:07:47;;;;;;;9.47;1.93;;;15.30;99.90;;;;;;5017751;28;20189;-45
2023/09/19 00:10:16;;;;;;;4.43;1.97;;;15.30;99.90;;;;;;5016398;28;20201;-45
2023/09/19 00:12:45;;;;;;;10.60;1.73;;;15.40;99.90;;;;;;5034831;28;20185;-46
2023/09/19 00:15:12;;;;;;;8.20;1.70;;;15.40;99.90;;;;;;5033024;28;20271;-44
2023/09/19 00:17:40;;;;;;;8.07;1.60;;;15.40;99.90;;;;;;5033612;28;20668;-45
2023/09/19 00:20:12;;;;;;;9.80;2.03;;;15.40;99.90;;;;;;5016085;28;20197;-45
2023/09/19 00:22:44;;;;;;;10.33;2.40;;;15.40;99.90;;;;;;5033754;28;20189;-46
2023/09/19 00:25:09;;;;;;;7.13;1.80;;;15.40;99.90;;;;;;5000502;28;20526;-44
2023/09/19 00:27:43;;;;;;;8.83;1.90;;;15.50;99.90;;;;;;5033619;28;20283;-43
2023/09/19 00:30:19;;;;;;;8.23;2.17;;;15.50;99.90;;;;;;5016510;28;20196;-45
2023/09/19 00:32:47;;;;;;;6.43;1.67;;;15.50;99.90;;;;;;5016002;28;20196;-44
2023/09/19 00:35:15;;;;;;;10.17;2.43;;;15.50;99.90;;;;;;5033542;28;20209;-45
2023/09/19 00:37:42;;;;;;;10.40;1.90;;;15.50;99.90;;;;;;5034025;28;20295;-44
2023/09/19 00:40:15;;;;;;;7.40;2.27;;;15.50;99.90;;;;;;5034339;28;20204;-46
2023/09/19 00:42:41;;;;;;;4.90;1.80;;;15.50;99.90;;;;;;5033526;28;20173;-44
2023/09/19 00:45:11;;;;;;;13.60;2.20;;;15.50;99.90;;;;;;5033461;28;20688;-44
2023/09/19 00:47:41;;;;;;;9.17;2.23;;;15.50;99.90;;;;;;5033393;28;20230;-45
2023/09/19 00:50:10;;;;;;;10.37;2.27;;;15.50;99.90;;;;;;5033302;28;20223;-43
2023/09/19 00:52:38;;;;;;;7.70;1.93;;;15.50;99.90;;;;;;5033528;28;20192;-46
2023/09/19 00:55:06;;;;;;;7.57;1.97;;;15.50;99.90;;;;;;5033261;28;20553;-44
2023/09/19 00:57:33;;;;;;;6.63;1.90;;;15.50;99.90;;;;;;4999377;28;20205;-43
2023/09/19 01:00:14;;;;;;;11.73;2.37;;;15.50;99.90;;;;;;5033235;28;20205;-42
2023/09/19 01:02:45;;;;;;;9.43;1.87;;;15.50;99.90;;;;;;5033237;28;20295;-43
2023/09/19 01:05:12;;;;;;;7.70;2.10;;;15.50;99.90;;;;;;5033863;28;20239;-44
2023/09/19 01:07:41;;;;;;;8.43;1.70;;;15.40;99.90;;;;;;5033115;28;20193;-43
2023/09/19 01:10:14;;;;;;;5.67;1.40;;;15.40;99.90;;;;;;5033080;28;20545;-43
2023/09/19 01:12:55;;;;;;;8.23;2.30;;;15.40;99.90;;;;;;5033540;28;20259;-44
2023/09/19 01:15:36;;;;;;;13.93;2.67;;;15.40;99.90;;;;;;5033193;28;20165;-43
2023/09/19 01:18:30;;;;;;;7.13;1.77;;;15.40;99.90;;;;;;5033027;28;20205;-45
2023/09/19 01:21:30;;;;;;;6.17;2.20;;;15.40;99.90;;;;;;5033094;28;20253;-45
2023/09/19 01:24:43;;;;;;;4.80;1.40;;;15.40;99.90;;;;;;5033109;28;20165;-45
2023/09/19 01:28:10;;;;;;;8.67;1.80;;;15.30;99.90;;;;;;5118207;23;20237;-46
2023/09/19 01:30:43;;;;;;;6.07;1.50;;;15.30;99.90;;;;;;5020118;28;20221;-45
2023/09/19 01:33:10;;;;;;;7.20;1.80;;;15.30;99.90;;;;;;5017688;28;20175;-45
2023/09/19 01:35:38;;;;;;;7.27;1.70;;;15.30;99.90;;;;;;5016003;28;20713;-44
2023/09/19 01:38:09;;;;;;;7.73;1.83;;;15.30;99.90;;;;;;5017232;28;20205;-51
2023/09/19 01:43:26;;;;;;;10.90;1.80;;;15.20;99.90;;;;;;4745049;26;20256;-50
2023/09/19 01:46:09;;;;;;;9.63;2.03;;;15.20;99.90;;;;;;5018756;28;20173;-48
2023/09/19 01:48:55;;;;;;;6.57;2.10;;;15.20;99.90;;;;;;5017308;28;20162;-48
2023/09/19 01:51:34;;;;;;;10.60;2.03;;;15.20;99.90;;;;;;5018500;28;20245;-50
2023/09/19 01:54:07;;;;;;;7.87;2.27;;;15.20;99.90;;;;;;5016320;28;20712;-48
2023/09/19 01:56:50;;;;;;;8.90;2.00;;;15.10;99.90;;;;;;5020926;28;20181;-50
2023/09/19 01:59:21;;;;;;;8.90;1.80;;;15.10;99.90;;;;;;5019762;28;20217;-49
2023/09/19 02:01:49;;;;;;;6.20;1.90;;;15.10;99.90;;;;;;5023004;28;20188;-49
2023/09/19 02:04:15;;;;;;;6.40;1.33;;;15.10;99.90;;;;;;5017836;28;20173;-49
2023/09/19 02:06:42;;;;;;;10.77;2.17;;;15.00;99.90;;;;;;5017005;28;20173;-50
2023/09/19 02:09:09;;;;;;;13.07;2.37;;;15.00;99.90;;;;;;5019232;28;20202;-49
2023/09/19 02:12:10;;;;;;;6.70;2.03;;;15.00;99.90;;;;;;5023493;28;20268;-48
2023/09/19 02:14:48;;;;;;;9.30;2.00;;;14.90;99.90;;;;;;5028441;28;20201;-48
2023/09/19 02:17:15;;;;;;;6.33;2.00;;;14.90;99.90;;;;;;5024041;28;20641;-48
2023/09/19 02:19:41;;;;;;;8.93;2.23;;;14.90;99.90;;;;;;5016350;28;20197;-50
2023/09/19 02:22:07;;;;;;;6.90;1.90;;;14.90;99.90;;;;;;5017715;28;20174;-49
2023/09/19 02:24:35;;;;;;;8.07;1.70;;;14.80;99.90;;;;;;5015854;28;20177;-50
2023/09/19 02:27:04;;;;;;;8.70;1.87;;;14.80;99.90;;;;;;5015847;28;20264;-48
2023/09/19 02:29:30;;;;;;;7.00;1.30;;;14.80;99.90;;;;;;5017531;28;20293;-50
2023/09/19 02:31:57;;;;;;;6.37;1.80;;;14.80;99.90;;;;;;5017931;28;20181;-48
2023/09/19 02:34:23;;;;;;;11.00;2.43;;;14.80;99.90;;;;;;5017249;28;20182;-49
2023/09/19 02:36:49;;;;;;;8.80;2.07;;;14.80;99.90;;;;;;5016761;28;20676;-48
2023/09/19 02:39:15;;;;;;;12.63;2.47;;;14.80;99.90;;;;;;5016232;28;20239;-51
2023/09/19 02:41:41;;;;;;;6.73;1.87;;;14.80;99.90;;;;;;5017376;28;20513;-51
2023/09/19 02:44:08;;;;;;;5.47;1.90;;;14.80;98.70;;;;;;5018424;28;20193;-50
2023/09/19 02:46:36;;;;;;;6.97;1.77;;;14.70;97.00;;;;;;5016444;28;20181;-50
2023/09/19 02:49:05;;;;;;;9.07;2.30;;;14.70;96.70;;;;;;5015766;28;20201;-51
2023/09/19 02:51:30;;;;;;;10.60;2.63;;;14.70;99.10;;;;;;5015843;28;20182;-49
2023/09/19 02:53:56;;;;;;;11.17;2.37;;;14.70;98.70;;;;;;5014533;28;20278;-50
2023/09/19 02:56:22;;;;;;;10.97;2.07;;;14.70;99.90;;;;;;5015924;28;20188;-49
2023/09/19 02:58:48;;;;;;;10.40;1.97;;;14.60;99.90;;;;;;5014333;28;20209;-50
2023/09/19 03:01:14;;;;;;;8.10;2.20;;;14.60;99.90;;;;;;5015953;28;20599;-50
2023/09/19 03:03:40;;;;;;;8.20;2.00;;;14.60;99.90;;;;;;5014296;28;20660;-50
2023/09/19 03:06:08;;;;;;;7.53;2.13;;;14.60;99.90;;;;;;5015864;28;20220;-51
2023/09/19 03:08:36;;;;;;;7.87;2.27;;;14.50;99.90;;;;;;5014069;28;20181;-50
2023/09/19 03:11:05;;;;;;;8.10;2.10;;;14.50;99.90;;;;;;5015747;28;20670;-49
2023/09/19 03:13:31;;;;;;;6.97;1.73;;;14.50;99.90;;;;;;5015604;28;20193;-50
2023/09/19 03:15:58;;;;;;;10.70;2.30;;;14.50;99.90;;;;;;5014068;28;20193;-50
2023/09/19 03:18:26;;;;;;;9.13;2.30;;;14.40;99.90;;;;;;5014030;28;20205;-51
2023/09/19 03:20:56;;;;;;;11.00;2.47;;;14.40;99.90;;;;;;5013875;28;20691;-50
2023/09/19 03:23:22;;;;;;;6.83;1.90;;;14.50;99.90;;;;;;5015209;28;20617;-51
2023/09/19 03:25:48;;;;;;;10.60;2.30;;;14.40;99.90;;;;;;5015682;28;20267;-46
2023/09/19 03:28:15;;;;;;;7.57;2.30;;;14.40;99.90;;;;;;5015154;28;20205;-45
2023/09/19 03:30:42;;;;;;;6.80;2.27;;;14.40;99.90;;;;;;5015039;28;20288;-44
2023/09/19 03:33:11;;;;;;;8.10;2.80;;;14.40;99.90;;;;;;5015450;28;20189;-45
2023/09/19 03:35:38;;;;;;;10.63;2.83;;;14.40;99.90;;;;;;5015234;28;20196;-47
2023/09/19 03:38:04;;;;;;;11.23;2.13;;;14.40;99.90;;;;;;5015199;28;20201;-46
2023/09/19 03:40:31;;;;;;;8.67;2.23;;;14.30;99.90;;;;;;5015068;28;20193;-47
2023/09/19 03:43:01;;;;;;;7.87;2.90;;;14.30;99.90;;;;;;5014154;28;20572;-46
2023/09/19 03:48:09;;;;;;;6.03;2.13;;;14.30;99.90;;;;;;4241117;26;20702;-46
2023/09/19 03:50:35;;;;;;;11.77;2.40;;;14.30;99.90;;;;;;5014725;28;20197;-49
2023/09/19 03:53:02;;;;;;;10.07;2.20;;;14.20;99.90;;;;;;5014730;28;20641;-49
2023/09/19 03:55:30;;;;;;;5.53;2.00;;;14.20;99.90;;;;;;5014663;28;20155;-49
2023/09/19 03:57:56;;;;;;;7.47;1.80;;;14.20;99.90;;;;;;5014429;28;20244;-49
2023/09/19 04:00:26;;;;;;;14.73;2.70;;;14.20;99.90;;;;;;5013108;28;20603;-49
2023/09/19 04:02:56;;;;;;;11.53;2.27;;;14.20;99.90;;;;;;5013297;28;20180;-48
2023/09/19 04:05:22;;;;;;;8.67;1.97;;;14.10;99.90;;;;;;5015505;28;20178;-49
2023/09/19 04:07:49;;;;;;;6.97;2.37;;;14.10;99.90;;;;;;5014416;28;20553;-49
2023/09/19 04:10:16;;;;;;;10.00;2.50;;;14.10;99.90;;;;;;5014448;28;20197;-47
2023/09/19 04:12:55;;;;;;;9.70;1.97;;;14.10;99.90;;;;;;5014291;28;20189;-47
2023/09/19 04:15:22;;;;;;;10.30;1.93;;;14.10;99.90;;;;;;5014476;28;20656;-48
2023/09/19 04:17:50;;;;;;;8.83;2.13;;;14.10;99.90;;;;;;5012916;28;20218;-47
2023/09/19 04:20:25;;;;;;;5.40;2.00;;;14.10;99.90;;;;;;4996672;28;20674;-48
2023/09/19 04:22:51;;;;;;;8.03;1.87;;;14.10;99.90;;;;;;5012800;28;20668;-48
2023/09/19 04:25:18;;;;;;;11.07;2.20;;;14.10;99.90;;;;;;5013170;28;20184;-48
2023/09/19 04:27:46;;;;;;;8.20;2.30;;;14.10;99.90;;;;;;5014053;28;20176;-51
2023/09/19 04:30:14;;;;;;;6.93;1.90;;;14.00;99.90;;;;;;5012666;28;20232;-47
2023/09/19 04:32:40;;;;;;;12.30;2.60;;;14.00;99.90;;;;;;5014050;28;20259;-50
2023/09/19 04:35:11;;;;;;;16.60;2.43;;;14.00;99.90;;;;;;5014357;28;20181;-49
2023/09/19 04:37:41;;;;;;;10.90;2.20;;;14.00;99.90;;;;;;5013938;28;20209;-49
2023/09/19 04:40:17;;;;;;;6.70;2.00;;;14.00;99.90;;;;;;5013749;28;20208;-49
2023/09/19 04:42:43;;;;;;;9.90;2.30;;;14.00;99.90;;;;;;5013885;28;20172;-48
2023/09/19 04:45:11;;;;;;;8.27;2.00;;;14.00;99.90;;;;;;5013873;28;20174;-50
2023/09/19 04:47:40;;;;;;;6.73;1.87;;;14.00;99.90;;;;;;5013698;28;20197;-47
2023/09/19 04:50:11;;;;;;;13.77;2.83;;;14.00;99.90;;;;;;5013602;28;20229;-48
2023/09/19 04:52:45;;;;;;;9.80;2.43;;;13.90;99.90;;;;;;5012771;28;20181;-50
2023/09/19 04:55:16;;;;;;;14.03;2.70;;;13.90;99.90;;;;;;5012446;28;20529;-48
2023/09/19 04:57:50;;;;;;;12.67;2.17;;;14.00;99.90;;;;;;5013478;28;20240;-49
2023/09/19 05:00:18;;;;;;;8.47;2.10;;;14.00;99.90;;;;;;5013353;28;20201;-48
2023/09/19 05:02:45;;;;;;;8.43;1.90;;;14.00;99.90;;;;;;5013441;28;20673;-49
2023/09/19 05:05:16;;;;;;;6.73;1.73;;;14.00;99.00;;;;;;5013406;28;20181;-48
2023/09/19 05:07:46;;;;;;;10.87;2.30;;;14.10;99.20;;;;;;4996542;28;20524;-48
2023/09/19 05:10:13;;;;;;;9.17;2.13;;;14.10;99.10;;;;;;5013430;28;20703;-48
2023/09/19 05:12:39;;;;;;;13.17;2.57;;;14.10;98.10;;;;;;5013774;28;20193;-48
2023/09/19 05:15:07;;;;;;;11.73;1.87;;;14.20;97.20;;;;;;5012710;28;20672;-49
2023/09/19 05:17:36;;;;;;;7.63;2.30;;;14.10;96.10;;;;;;5013658;28;20184;-49
2023/09/19 05:20:06;;;;;;;11.07;2.57;;;14.20;99.00;;;;;;5012147;28;20205;-49
2023/09/19 05:22:32;;;;;;;10.00;2.57;;;14.10;99.90;;;;;;5013404;28;20667;-50
2023/09/19 05:24:59;;;;;;;12.17;2.97;;;14.20;99.50;;;;;;5013364;28;20177;-49
2023/09/19 05:30:15;;;;;;;16.33;2.23;;;14.20;99.90;;;;;;5012625;28;20780;-49
2023/09/19 05:32:45;;;;;;;10.50;1.77;;;14.20;96.40;;;;;;5013949;28;20188;-49
2023/09/19 05:35:12;;;;;;;10.17;2.20;;;14.20;96.20;;;;;;5014305;28;20186;-49
2023/09/19 05:37:39;;;;;;;10.03;2.33;;;14.30;97.70;;;;;;5013340;28;20218;-50
2023/09/19 05:40:12;;;;;;;8.67;2.13;;;14.30;96.30;;;;;;4995858;28;20731;-49
2023/09/19 05:45:29;;;;;;;10.23;2.47;;;14.30;96.80;;;;;;5030532;28;20235;-47
2023/09/19 05:48:01;;;;;;;7.93;2.33;;;14.30;98.70;;;;;;5032839;28;20181;-47
2023/09/19 05:50:26;;;;;;;9.73;2.40;;;14.30;97.80;;;;;;5032915;28;20673;-45
2023/09/19 05:52:56;;;;;;;11.07;2.30;;;14.30;99.90;;;;;;5033954;28;20187;-45
2023/09/19 05:55:24;;;;;;;10.73;2.07;;;14.30;99.30;;;;;;5033395;28;20182;-44
2023/09/19 05:57:51;;;;;;;11.73;1.50;;;14.30;99.90;;;;;;5015108;28;20209;-44
2023/09/19 06:00:22;;;;;;;11.27;2.53;;;14.30;99.90;;;;;;5015025;28;20548;-45
2023/09/19 06:02:56;;;;;;;9.90;2.13;;;14.30;99.90;;;;;;5032924;28;20501;-45
2023/09/19 06:05:23;;;;;;;13.40;2.27;;;14.30;99.90;;;;;;5015041;28;20175;-44
2023/09/19 06:07:50;;;;;;;7.57;1.93;;;14.30;99.80;;;;;;5032776;28;20183;-46
2023/09/19 06:10:17;;;;;;;9.73;1.77;;;14.30;99.90;;;;;;5033132;28;20212;-44
2023/09/19 06:12:53;;;;;;;11.20;2.37;;;14.30;99.90;;;;;;5016665;28;20664;-45
2023/09/19 06:15:23;;;;;;;9.63;2.37;;;14.30;99.90;;;;;;5037277;28;20170;-45
2023/09/19 06:17:55;;;;;;;10.30;2.47;;;14.30;99.90;;;;;;5018888;28;20732;-44
2023/09/19 06:20:23;;;;;;;12.13;2.50;;;14.30;99.90;;;;;;5036412;28;20229;-44
2023/09/19 06:22:49;;;;;;;8.20;1.90;;;14.30;99.90;;;;;;5002271;28;20185;-46
2023/09/19 06:25:19;;;;;;;8.53;1.60;;;14.30;99.90;;;;;;5018513;28;20250;-43
2023/09/19 06:27:52;;;;;;;16.27;3.13;;;14.30;99.90;;;;;;5018401;28;20181;-44
2023/09/19 06:30:18;;;;;;;12.37;2.53;;;14.40;99.90;;;;;;5018284;28;20215;-43
2023/09/19 06:32:44;;;;;;;10.87;2.30;;;14.40;99.90;;;;;;5035829;28;20231;-43
2023/09/19 06:35:11;;;;;;;11.10;2.17;;;14.40;99.90;;;;;;5018876;28;20181;-44
2023/09/19 06:37:40;;;;;;;8.87;1.90;;;14.40;99.90;;;;;;5018052;28;20255;-43
2023/09/19 06:40:14;;;;;;;11.50;2.03;;;14.50;99.90;;;;;;5018099;28;20201;-44
2023/09/19 06:42:45;;;;;;;11.80;2.57;;;14.50;99.90;;;;;;5036109;28;20169;-43
2023/09/19 06:45:13;;;;;;;10.23;2.23;;;14.50;99.90;;;;;;5035851;28;20235;-43
2023/09/19 06:47:39;;;;;;;12.00;2.53;;;14.50;99.90;;;;;;5017899;28;20192;-44
2023/09/19 06:50:07;;;;;;;10.73;2.23;;;14.50;99.90;;;;;;5035745;28;20209;-46
2023/09/19 06:52:35;;;;;;;13.50;2.30;;;14.60;99.90;;;;;;5037452;28;20186;-46
2023/09/19 06:55:03;;;;;;;5.93;1.80;;;14.60;99.90;;;;;;5018637;28;20260;-45
2023/09/19 06:57:30;;;;;;;8.47;2.00;;;14.60;99.90;;;;;;5035671;28;20185;-42
2023/09/19 06:59:56;;;;;;;13.73;2.27;;;14.70;99.90;;;;;;5035534;28;20564;-48
2023/09/19 07:02:23;;;;;;;9.50;2.40;;;14.70;99.90;;;;;;5035484;28;20181;-50
2023/09/19 07:04:49;;;;;;;8.97;1.87;;;14.70;99.90;;;;;;5017613;28;20185;-48
2023/09/19 07:07:16;;;;;;;10.57;2.17;;;14.80;99.90;;;;;;5035415;28;20173;-50
2023/09/19 07:09:42;;;;;;;9.07;2.43;;;14.80;99.90;;;;;;5035176;28;20292;-50
2023/09/19 07:12:08;;;;;;;10.93;2.37;;;14.90;99.90;;;;;;5035368;28;20268;-49
2023/09/19 07:14:34;;;;;;;11.90;2.20;;;14.90;99.90;;;;;;5035265;28;20670;-48
2023/09/19 07:17:00;;;;;;;10.63;2.23;;;14.90;99.90;;;;;;5017503;28;20234;-43
2023/09/19 07:19:31;;;;;;;5.73;2.10;;;15.00;99.60;;;;;;5000903;28;20225;-42
2023/09/19 07:21:59;;;;;;;10.87;2.57;;;15.00;97.80;;;;;;5035237;28;20165;-42
2023/09/19 07:24:27;;;;;;;8.80;2.23;;;15.10;97.80;;;;;;5017165;28;20180;-45
2023/09/19 07:29:28;;;;;;;9.90;2.40;;;15.20;98.50;;;;;;4851965;26;20268;-49
2023/09/19 07:31:54;;;;;;;6.27;1.93;;;15.30;97.70;;;;;;5034947;28;20191;-49
2023/09/19 07:34:24;;;;;;;8.70;2.30;;;15.30;96.60;;;;;;5035326;28;20704;-50
2023/09/19 07:36:50;;;;;;;6.77;2.23;;;15.40;93.80;;;;;;5033666;28;20239;-49
2023/09/19 07:39:17;;;;;;;13.60;2.40;;;15.40;95.80;;;;;;5033490;28;20253;-49
2023/09/19 07:41:43;;;;;;;11.53;2.00;;;15.50;95.00;;;;;;5034851;28;20169;-49
2023/09/19 07:44:10;;;;;;;6.87;1.83;;;15.60;94.70;;;;;;5034853;28;20551;-48
2023/09/19 07:46:36;;;;;;;10.17;2.20;;;15.70;90.40;;;;;;5033464;28;20656;-50
2023/09/19 07:49:02;;;;;;;7.80;1.97;;;15.70;90.50;;;;;;5034139;28;20208;-48
2023/09/19 07:51:29;;;;;;;9.83;2.00;;;15.80;90.30;;;;;;5035038;28;20252;-48
2023/09/19 07:53:54;;;;;;;9.07;2.23;;;15.80;91.90;;;;;;5034747;28;20604;-49
2023/09/19 07:58:57;;;;;;;11.97;3.10;;;15.90;90.60;;;;;;4328015;26;20241;-51
2023/09/19 08:01:23;;;;;;;8.03;2.23;;;16.00;90.50;;;;;;5014461;28;20185;-50
2023/09/19 08:03:50;;;;;;;8.77;2.10;;;16.10;80.10;;;;;;5014518;28;20275;-49
2023/09/19 08:06:18;;;;;;;8.73;2.07;;;16.10;86.60;;;;;;5014641;28;20181;-49
2023/09/19 08:08:44;;;;;;;9.87;1.90;;;16.20;77.40;;;;;;5014905;28;20523;-48
2023/09/19 08:11:12;;;;;;;5.43;1.63;;;16.30;77.10;;;;;;5014843;28;20240;-50
2023/09/19 08:13:48;;;;;;;9.53;2.67;;;16.30;75.30;;;;;;5017997;28;20181;-48
2023/09/19 08:16:19;;;;;;;10.27;2.13;;;16.30;76.30;;;;;;5013512;28;20173;-48
2023/09/19 08:18:54;;;;;;;14.63;2.20;;;16.40;84.70;;;;;;5014817;28;20570;-49
2023/09/19 08:21:23;;;;;;;10.77;1.80;;;16.50;79.00;;;;;;5014748;28;20254;-48
2023/09/19 08:23:50;;;;;;;14.57;2.73;;;16.60;81.70;;;;;;5014435;28;20180;-48
2023/09/19 08:26:16;;;;;;;12.70;2.53;;;16.60;75.10;;;;;;5013040;28;20182;-48
2023/09/19 08:28:42;;;;;;;6.57;2.30;;;16.70;67.50;;;;;;5013061;28;20676;-48
2023/09/19 08:31:09;;;;;;;5.77;1.97;;;16.70;65.90;;;;;;5014333;28;20208;-49
2023/09/19 08:33:36;;;;;;;7.87;2.13;;;16.80;71.70;;;;;;5014064;28;20695;-50
2023/09/19 08:36:06;;;;;;;11.03;2.20;;;16.80;71.00;;;;;;5013701;28;20269;-49
2023/09/19 08:38:34;;;;;;;11.30;2.30;;;16.90;67.80;;;;;;5014107;28;20605;-50
2023/09/19 08:41:06;;;;;;;8.43;1.83;;;16.90;57.80;;;;;;5015387;28;20268;-48
2023/09/19 08:43:34;;;;;;;7.87;1.63;;;17.00;51.00;;;;;;4997637;28;20181;-48
2023/09/19 08:46:14;;;;;;;10.53;2.07;;;17.00;61.50;;;;;;5014098;28;20738;-48
2023/09/19 08:48:49;;;;;;;12.73;2.53;;;17.10;66.40;;;;;;5014121;28;20181;-47
2023/09/19 08:51:27;;;;;;;14.93;2.50;;;17.10;50.00;;;;;;5013045;28;20169;-45
2023/09/19 08:54:05;;;;;;;7.43;1.70;;;17.10;57.60;;;;;;5014118;28;20157;-47
2023/09/19 08:56:33;;;;;;;11.00;2.30;;;17.20;60.70;;;;;;5014066;28;20196;-44
2023/09/19 08:59:09;;;;;;;9.77;2.03;;;17.20;48.20;;;;;;5012709;28;20588;-45
2023/09/19 09:01:35;;;;;;;6.13;1.87;;;17.30;52.10;;;;;;5012850;28;20656;-44
2023/09/19 09:04:02;;;;;;;7.43;1.77;;;17.30;47.50;;;;;;5012634;28;20183;-45
2023/09/19 09:06:29;;;;;;;8.60;1.87;;;17.40;49.30;;;;;;5013689;28;20169;-46
2023/09/19 09:08:56;;;;;;;10.60;1.83;;;17.40;45.20;;;;;;5012455;28;20600;-44
2023/09/19 09:11:27;;;;;;;8.30;2.00;;;17.50;41.90;;;;;;5013664;28;20217;-44
2023/09/19 09:21:44;;;;;;;7.47;2.13;;;17.80;49.70;;;;;;4351194;26;20769;-49
2023/09/19 09:24:37;;;;;;;10.17;1.90;;;17.90;43.10;;;;;;5037266;28;20208;-50
2023/09/19 09:42:41;;;;;;;10.20;2.03;;;18.20;27.00;;;;;;5029950;28;20212;-48
2023/09/19 09:48:03;;;;;;;8.10;1.77;;;18.30;39.90;;;;;;5035625;28;20177;-51
2023/09/19 09:51:07;;;;;;;6.87;1.50;;;18.30;36.20;;;;;;5035377;28;20258;-48
2023/09/19 09:53:34;;;;;;;12.83;2.47;;;18.30;23.20;;;;;;5036312;28;20216;-49
2023/09/19 09:56:05;;;;;;;7.27;1.67;;;18.30;42.50;;;;;;5035480;28;20652;-48
2023/09/19 10:03:52;;;;;;;8.50;2.17;;;18.60;52.00;;;;;;5034051;28;20212;-41
2023/09/19 10:09:11;;;;;;;9.53;2.10;;;18.70;56.60;;;;;;5036315;28;20158;-42
2023/09/19 10:12:03;;;;;;;6.40;1.50;;;18.80;35.80;;;;;;5018777;28;20176;-45
2023/09/19 10:14:34;;;;;;;5.87;1.87;;;18.90;35.10;;;;;;5025764;28;20185;-46
2023/09/19 10:17:04;;;;;;;5.33;1.80;;;19.00;42.20;;;;;;5033909;23;20222;-50
2023/09/19 10:19:36;;;;;;;8.60;1.80;;;18.90;41.90;;;;;;5015056;28;20300;-50
2023/09/19 10:22:04;;;;;;;7.93;2.03;;;18.90;37.10;;;;;;5015209;28;20174;-51
2023/09/19 10:24:33;;;;;;;15.47;2.00;;;18.90;44.50;;;;;;5016364;28;20236;-50
2023/09/19 10:27:00;;;;;;;12.20;2.20;;;19.00;41.10;;;;;;5016725;28;20557;-49
2023/09/19 10:29:31;;;;;;;9.93;2.10;;;18.90;41.10;;;;;;5015136;28;20198;-49
2023/09/19 10:31:59;;;;;;;10.43;2.33;;;18.90;39.10;;;;;;5015525;28;20192;-50
2023/09/19 10:34:26;;;;;;;7.27;1.83;;;18.90;14.90;;;;;;5016849;28;20184;-49
2023/09/19 10:36:53;;;;;;;7.77;2.20;;;19.00;36.80;;;;;;5015434;28;20178;-50
2023/09/19 10:39:19;;;;;;;6.50;2.23;;;18.90;8.40;;;;;;5016779;28;20667;-50
2023/09/19 10:41:53;;;;;;;4.27;1.60;;;18.90;14.10;;;;;;5016856;28;20177;-49
2023/09/19 10:44:25;;;;;;;10.80;2.30;;;18.90;32.00;;;;;;5016721;28;20166;-50
2023/09/19 10:47:06;;;;;;;12.83;2.13;;;18.90;27.90;;;;;;5016818;28;20192;-49
2023/09/19 10:49:34;;;;;;;3.97;1.60;;;18.80;25.60;;;;;;5015849;28;20211;-50
2023/09/19 10:52:02;;;;;;;7.77;2.70;;;18.80;1.00;;;;;;5016620;28;20177;-49
2023/09/19 10:54:36;;;;;;;4.70;1.70;;;18.80;22.00;;;;;;5016172;28;20261;-51
2023/09/19 10:57:05;;;;;;;4.63;1.57;;;18.80;20.50;;;;;;5016014;28;20165;-49
2023/09/19 10:59:34;;;;;;;7.53;1.87;;;18.80;30.90;;;;;;5015078;28;20296;-49
2023/09/19 11:02:15;;;;;;;8.50;2.40;;;18.90;41.90;;;;;;5014431;28;20184;-49
2023/09/19 11:04:42;;;;;;;5.97;1.80;;;19.00;31.80;;;;;;5014489;28;20177;-51
2023/09/19 11:07:16;;;;;;;8.67;2.13;;;19.00;17.90;;;;;;5015679;28;20609;-51
2023/09/19 11:09:58;;;;;;;4.67;1.53;;;19.00;26.80;;;;;;5016124;28;20609;-49
2023/09/19 11:12:45;;;;;;;9.53;1.83;;;19.00;24.60;;;;;;5014550;28;20188;-48
2023/09/19 11:15:49;;;;;;;9.20;2.53;;;19.00;34.60;;;;;;5015780;28;20517;-49
2023/09/19 11:18:40;;;;;;;4.70;1.37;;;19.10;30.50;;;;;;5015251;28;20220;-49
2023/09/19 11:21:33;;;;;;;5.73;1.73;;;19.10;32.40;;;;;;5015667;28;20177;-49
2023/09/19 11:24:22;;;;;;;9.10;2.13;;;19.20;15.00;;;;;;5015458;28;20239;-47
2023/09/19 11:26:48;;;;;;;10.23;2.13;;;19.30;14.20;;;;;;5015605;28;20184;-49
2023/09/19 11:29:29;;;;;;;7.63;1.87;;;19.30;13.30;;;;;;5015378;28;20201;-50
2023/09/19 11:31:56;;;;;;;8.10;1.77;;;19.40;4.40;;;;;;5015287;28;20597;-49
2023/09/19 11:34:39;;;;;;;5.83;1.77;;;19.40;16.60;;;;;;5013904;28;20268;-48
2023/09/19 11:37:13;;;;;;;6.13;1.77;;;19.50;13.80;;;;;;5015286;28;20174;-46
2023/09/19 11:39:39;;;;;;;4.40;1.67;;;19.60;1.00;;;;;;5015146;28;20210;-47
2023/09/19 11:42:41;;;;;;;6.03;1.67;;;19.70;9.30;;;;;;5015248;28;20184;-46
2023/09/19 11:45:07;;;;;;;4.03;1.63;;;19.80;26.20;;;;;;5015255;28;20245;-44
2023/09/19 11:47:34;;;;;;;16.13;1.97;;;19.90;31.50;;;;;;5015135;28;20285;-45
2023/09/19 11:50:01;;;;;;;7.93;1.87;;;20.00;26.30;;;;;;5013411;28;20200;-46
2023/09/19 11:52:34;;;;;;;5.33;1.37;;;20.00;22.40;;;;;;5014948;28;20200;-44
2023/09/19 11:55:01;;;;;;;7.97;1.90;;;20.00;17.20;;;;;;5014598;28;20223;-45
2023/09/19 11:57:30;;;;;;;4.77;1.63;;;20.00;1.60;;;;;;5013344;28;20552;-43
2023/09/19 11:59:55;;;;;;;6.67;2.07;;;20.10;1.00;;;;;;5014668;28;20213;-45
2023/09/19 12:07:54;;;;;;;5.43;1.60;;;20.30;31.00;;;;;;5031608;28;20563;-45
2023/09/19 12:10:22;;;;;;;4.97;2.17;;;20.30;30.40;;;;;;5034446;28;20196;-46
2023/09/19 12:12:53;;;;;;;2.90;1.17;;;20.30;19.10;;;;;;5034421;28;20188;-46
2023/09/19 12:15:33;;;;;;;4.80;1.33;;;20.40;31.50;;;;;;5034343;28;20169;-44
2023/09/19 12:18:00;;;;;;;3.87;1.43;;;20.40;31.80;;;;;;5016331;28;20203;-45
2023/09/19 12:20:40;;;;;;;6.20;1.97;;;20.50;37.60;;;;;;5016291;28;20287;-47
2023/09/19 12:23:13;;;;;;;8.40;1.80;;;20.50;1.00;;;;;;5034173;28;20174;-42
2023/09/19 12:25:46;;;;;;;5.57;1.57;;;20.60;11.20;;;;;;5033962;28;20209;-45
2023/09/19 12:28:12;;;;;;;5.80;1.73;;;20.60;4.80;;;;;;5017241;28;20528;-48
2023/09/19 12:30:41;;;;;;;5.83;1.40;;;20.70;6.90;;;;;;5033712;28;20240;-49
2023/09/19 12:33:32;;;;;;;4.27;1.77;;;20.80;1.00;;;;;;5033833;28;20173;-49
2023/09/19 12:35:58;;;;;;;3.93;1.20;;;20.80;18.80;;;;;;5018104;28;20208;-49
2023/09/19 12:38:28;;;;;;;4.13;1.37;;;20.80;26.00;;;;;;5033553;28;20751;-51
2023/09/19 12:40:56;;;;;;;1.87;1.00;;;20.90;1.00;;;;;;5015861;28;20192;-50
2023/09/19 12:43:23;;;;;;;4.13;1.13;;;20.90;1.00;;;;;;5033816;28;20212;-50
2023/09/19 12:45:50;;;;;;;4.87;1.30;;;21.00;1.00;;;;;;5015883;28;20185;-49
2023/09/19 12:48:31;;;;;;;13.60;3.00;;;21.00;9.70;;;;;;5015926;28;20188;-49
2023/09/19 12:51:04;;;;;;;7.03;1.50;;;21.10;1.90;;;;;;5015848;28;20232;-49
2023/09/19 12:53:32;;;;;;;3.53;1.30;;;21.10;1.00;;;;;;5033740;28;20193;-50
2023/09/19 12:55:59;;;;;;;3.37;1.73;;;21.10;1.00;;;;;;5033407;28;20280;-50
2023/09/19 12:58:25;;;;;;;3.53;1.80;;;21.10;8.00;;;;;;5033645;28;20296;-51
2023/09/19 13:00:51;;;;;;;4.47;1.37;;;21.10;1.00;;;;;;5034460;28;20208;-46
2023/09/19 13:03:34;;;;;;;4.23;1.07;;;21.20;1.00;;;;;;5033697;28;20275;-46
2023/09/19 13:06:04;;;;;;;3.93;1.47;;;21.10;1.00;;;;;;5033386;28;20675;-46
2023/09/19 13:08:37;;;;;;;2.17;1.20;;;21.10;1.00;;;;;;5033488;28;20191;-44
2023/09/19 13:11:15;;;;;;;6.27;1.60;;;21.30;1.90;;;;;;5033563;28;20169;-45
2023/09/19 13:14:10;;;;;;;4.03;1.67;;;21.30;1.00;;;;;;5033488;28;20177;-50
2023/09/19 13:16:57;;;;;;;3.27;1.30;;;21.30;5.60;;;;;;5032983;28;20196;-49
2023/09/19 13:19:45;;;;;;;3.53;1.23;;;21.40;12.70;;;;;;5033084;28;20258;-49
2023/09/19 13:22:38;;;;;;;5.07;1.00;;;21.30;10.90;;;;;;5034050;28;20759;-50
2023/09/19 13:25:13;;;;;;;4.47;1.00;;;21.40;24.90;;;;;;5037141;28;20671;-51
2023/09/19 13:27:41;;;;;;;4.03;1.00;;;21.40;1.00;;;;;;5037425;28;20196;-50
2023/09/19 13:30:08;;;;;;;2.83;1.13;;;21.50;1.00;;;;;;5036926;28;20208;-51
2023/09/19 13:32:34;;;;;;;4.20;1.17;;;21.40;1.00;;;;;;5037318;28;20185;-51
2023/09/19 13:35:01;;;;;;;2.47;1.10;;;21.40;1.00;;;;;;5036802;28;20191;-50
2023/09/19 13:37:27;;;;;;;2.57;1.00;;;21.30;1.00;;;;;;5036874;28;20184;-48
2023/09/19 13:39:53;;;;;;;4.40;0.90;;;21.20;1.00;;;;;;5036889;28;20690;-51
2023/09/19 13:42:21;;;;;;;2.40;1.07;;;21.20;1.00;;;;;;5002982;28;20185;-49
2023/09/19 13:44:48;;;;;;;3.30;1.17;;;21.10;1.00;;;;;;5037135;28;20188;-49
2023/09/19 13:47:15;;;;;;;3.63;1.17;;;21.00;1.00;;;;;;5018984;28;20275;-49
2023/09/19 13:49:42;;;;;;;4.17;1.10;;;21.00;1.00;;;;;;5036653;28;20197;-51
2023/09/19 13:52:09;;;;;;;2.57;1.10;;;20.90;1.00;;;;;;5019713;28;20279;-48
2023/09/19 13:54:35;;;;;;;4.97;1.23;;;20.80;1.00;;;;;;5018927;28;20180;-49
2023/09/19 13:57:01;;;;;;;3.13;1.23;;;20.80;1.00;;;;;;5036750;28;20287;-50
2023/09/19 13:59:28;;;;;;;1.83;0.80;;;20.80;1.00;;;;;;5036945;28;20703;-50
2023/09/19 14:01:54;;;;;;;2.77;1.00;;;20.80;1.00;;;;;;5036825;28;20250;-51